Time;durP1;ratioP1;P1;durP2;ratioP2;P2;SDS_P1;SDS_P2;PMS_P1;PMS_P2;Temp;Humidity;BMP_temperature;BMP_pressure;BME280_temperature;BME280_humidity;BME280_pressure;Samples;Min_cycle;Max_cycle;Signal;HPM_P1;HPM_P2
2021/12/14 00:02:58;;;;;;;15.10;11.77;;;;;;;7.45;69.08;101001.53;10402737;28;20132;-68
2021/12/14 00:08:02;;;;;;;16.65;11.85;;;;;;;7.54;68.86;100996.88;10402371;28;20053;-68
2021/12/14 00:13:22;;;;;;;14.90;9.90;;;;;;;7.53;69.04;101010.78;10403026;28;20148;-68
2021/12/14 00:18:25;;;;;;;17.15;12.60;;;;;;;7.53;68.91;101017.75;10401807;28;20103;-68
2021/12/14 00:28:51;;;;;;;15.73;10.40;;;;;;;7.51;68.88;101015.19;10402460;28;20053;-68
2021/12/14 00:33:59;;;;;;;15.40;10.35;;;;;;;7.60;68.92;101016.66;10400320;28;20057;-68
2021/12/14 00:39:05;;;;;;;14.70;11.15;;;;;;;7.70;68.68;101024.16;10402613;28;20052;-68
2021/12/14 00:44:09;;;;;;;17.00;11.48;;;;;;;7.73;68.33;101023.22;10408284;28;20056;-68
2021/12/14 00:49:12;;;;;;;16.00;10.65;;;;;;;7.72;68.34;101021.50;10410209;28;20053;-68
2021/12/14 00:54:16;;;;;;;17.80;11.48;;;;;;;7.76;68.21;101023.97;10410085;28;20045;-68
2021/12/14 00:59:20;;;;;;;16.63;9.27;;;;;;;7.74;68.31;101030.97;10409820;28;20128;-68
2021/12/14 01:04:30;;;;;;;15.30;10.48;;;;;;;7.79;68.19;101031.66;10408465;28;20136;-68
2021/12/14 01:09:36;;;;;;;19.50;10.63;;;;;;;7.79;68.10;101021.25;10409464;28;20493;-68
2021/12/14 01:15:00;;;;;;;19.65;10.55;;;;;;;7.74;68.16;101019.69;10408620;28;20054;-68
2021/12/14 01:20:03;;;;;;;13.38;9.25;;;;;;;7.67;68.43;101018.19;10386421;28;20041;-68
2021/12/14 01:25:16;;;;;;;16.33;9.70;;;;;;;7.68;68.48;101015.53;10408481;28;20116;-68
2021/12/14 01:30:36;;;;;;;14.38;9.75;;;;;;;7.66;68.36;101012.13;10399610;28;20397;-68
2021/12/14 01:35:41;;;;;;;14.85;8.82;;;;;;;7.72;68.33;101026.69;10407779;28;20055;-68
2021/12/14 01:40:53;;;;;;;15.00;9.68;;;;;;;7.77;68.16;101036.06;10407096;28;20390;-68
2021/12/14 01:45:57;;;;;;;11.65;8.45;;;;;;;7.75;68.13;101040.47;10407599;28;20051;-68
2021/12/14 01:51:02;;;;;;;13.82;8.43;;;;;;;7.76;68.21;101036.13;10407748;28;20050;-68
2021/12/14 01:56:08;;;;;;;14.13;9.38;;;;;;;7.80;68.09;101032.53;10408426;28;20434;-68
2021/12/14 02:01:19;;;;;;;17.20;10.43;;;;;;;7.77;68.05;101023.03;10407761;28;20096;-68
2021/12/14 02:06:27;;;;;;;19.95;11.45;;;;;;;7.59;68.35;101025.38;10407452;28;20133;-68
2021/12/14 02:11:40;;;;;;;14.82;9.68;;;;;;;7.54;68.61;101004.69;10407163;28;20053;-68
2021/12/14 02:16:43;;;;;;;16.27;10.13;;;;;;;7.60;68.60;101003.66;10406958;28;20056;-68
2021/12/14 02:21:48;;;;;;;19.23;12.40;;;;;;;7.66;68.52;100999.09;10405856;28;20049;-68
2021/12/14 02:26:52;;;;;;;12.93;10.32;;;;;;;7.64;68.47;101000.91;10406687;28;20416;-68
2021/12/14 02:32:20;;;;;;;17.60;11.23;;;;;;;7.58;68.34;100988.09;10406310;28;20041;-68
2021/12/14 02:37:40;;;;;;;16.88;11.15;;;;;;;7.56;68.49;100989.03;10402243;28;20045;-68
2021/12/14 02:42:42;;;;;;;15.30;9.93;;;;;;;7.65;68.33;100981.75;10397512;28;20061;-68
2021/12/14 02:47:44;;;;;;;16.80;10.07;;;;;;;7.65;68.24;100976.56;10366210;28;20594;-68
2021/12/14 02:52:46;;;;;;;13.27;8.93;;;;;;;7.66;68.14;100980.88;10393303;28;20144;-68
2021/12/14 02:57:51;;;;;;;15.82;8.93;;;;;;;7.63;68.18;100983.56;10404732;28;20155;-68
2021/12/14 03:02:56;;;;;;;15.70;9.52;;;;;;;7.56;68.51;100979.47;10408523;28;20046;-68
2021/12/14 03:08:13;;;;;;;17.67;10.10;;;;;;;7.49;68.80;100972.72;10411999;28;20053;-68
2021/12/14 03:13:14;;;;;;;13.73;9.27;;;;;;;7.58;68.48;100969.00;10412499;28;20096;-68
2021/12/14 03:18:20;;;;;;;17.00;10.70;;;;;;;7.49;68.39;100972.72;10412733;28;20136;-68
2021/12/14 03:23:53;;;;;;;11.75;8.70;;;;;;;7.44;68.84;100979.84;10411781;28;20481;-68
2021/12/14 03:28:59;;;;;;;19.55;10.60;;;;;;;7.57;68.49;100960.31;10410296;28;20068;-68
2021/12/14 03:34:20;;;;;;;21.05;13.70;;;;;;;7.52;68.49;100963.97;10406549;28;20048;-68
2021/12/14 03:39:29;;;;;;;20.15;12.70;;;;;;;7.57;68.38;100965.53;10411154;28;20120;-68
2021/12/14 03:44:35;;;;;;;18.15;10.63;;;;;;;7.52;68.39;100951.81;10412017;28;20049;-68
2021/12/14 03:49:48;;;;;;;14.90;9.18;;;;;;;7.43;68.65;100940.81;10411327;28;20056;-68
2021/12/14 03:54:50;;;;;;;18.05;12.10;;;;;;;7.42;68.70;100915.72;10397520;28;20055;-68
2021/12/14 03:59:52;;;;;;;18.35;12.57;;;;;;;7.44;68.55;100908.72;10411908;28;20136;-68
2021/12/14 04:05:03;;;;;;;15.65;9.88;;;;;;;7.35;68.80;100902.03;10406474;28;20184;-68
2021/12/14 04:10:08;;;;;;;;;;;;;;;6.94;69.69;100897.22;10401175;28;20562;-68
2021/12/14 04:15:12;;;;;;;13.50;10.20;;;;;;;7.07;69.47;100895.97;10418814;28;19921;-68
2021/12/14 04:20:28;;;;;;;17.73;11.70;;;;;;;7.10;69.67;100888.09;10383445;28;20136;-67
2021/12/14 04:25:32;;;;;;;14.18;10.10;;;;;;;7.23;69.39;100878.16;10403575;28;20140;-68
2021/12/14 04:30:36;;;;;;;16.27;10.77;;;;;;;7.40;69.03;100876.75;10401617;28;20141;-68
2021/12/14 04:35:41;;;;;;;15.75;10.60;;;;;;;7.26;68.98;100865.91;10402280;28;20050;-67
2021/12/14 04:56:37;;;;;;;16.30;10.48;;;;;;;7.28;68.91;100864.13;10403448;28;20060;-68
2021/12/14 05:01:43;;;;;;;16.85;8.63;;;;;;;6.96;69.59;100869.44;10402747;28;20540;-67
2021/12/14 05:07:25;;;;;;;13.20;10.00;;;;;;;7.09;69.66;100855.16;10401687;28;20115;-68
2021/12/14 05:12:14;;;;;;;17.48;11.52;;;;;;;7.07;69.56;100886.44;10402373;28;20409;-68
2021/12/14 05:17:20;;;;;;;16.27;10.93;;;;;;;7.18;69.55;100870.50;10400866;28;20085;-68
2021/12/14 05:22:34;;;;;;;20.88;12.80;;;;;;;7.21;69.40;100873.00;10402821;28;20049;-68
2021/12/14 05:27:46;;;;;;;18.55;12.45;;;;;;;7.09;69.85;100889.84;10402340;28;20053;-68
2021/12/14 05:32:48;;;;;;;16.30;9.75;;;;;;;7.16;69.55;100913.94;10408154;28;20083;-68
2021/12/14 05:37:53;;;;;;;20.42;11.23;;;;;;;7.27;69.38;100929.19;10400060;28;20043;-68
2021/12/14 05:43:08;;;;;;;18.83;11.57;;;;;;;7.27;69.23;100932.66;10408079;28;20037;-69
2021/12/14 05:48:16;;;;;;;24.95;14.73;;;;;;;7.38;69.05;100934.94;10409050;28;20371;-68
2021/12/14 05:53:24;;;;;;;18.95;12.73;;;;;;;7.31;69.03;100921.25;10408991;28;20572;-69
2021/12/14 05:58:26;;;;;;;24.95;13.77;;;;;;;7.27;69.19;100906.63;10406930;28;20072;-68
2021/12/14 06:03:31;;;;;;;19.83;13.80;;;;;;;7.38;69.23;100906.31;10408790;28;20084;-69
2021/12/14 06:08:34;;;;;;;21.73;12.10;;;;;;;7.33;68.95;100916.00;10407908;28;20050;-69
2021/12/14 06:13:43;;;;;;;19.27;12.05;;;;;;;7.19;69.47;100926.81;10407722;28;20129;-69
2021/12/14 06:18:44;;;;;;;18.88;11.38;;;;;;;7.31;68.95;100923.84;10407648;28;20483;-68
2021/12/14 06:23:47;;;;;;;17.02;11.60;;;;;;;7.37;68.75;100949.69;10406174;28;20132;-68
2021/12/14 06:28:49;;;;;;;21.88;14.60;;;;;;;7.39;68.87;100953.09;10400874;28;20056;-69
2021/12/14 06:33:51;;;;;;;24.83;14.95;;;;;;;7.45;68.77;100937.28;10405814;28;20048;-68
2021/12/14 06:39:04;;;;;;;22.40;14.20;;;;;;;7.39;68.96;100949.63;10400214;28;20136;-68
2021/12/14 06:44:06;;;;;;;21.80;13.60;;;;;;;7.38;68.93;100938.38;10391407;28;20083;-68
2021/12/14 06:49:11;;;;;;;20.50;12.93;;;;;;;7.49;68.52;100936.28;10403043;28;20055;-69
2021/12/14 06:54:19;;;;;;;19.27;11.55;;;;;;;7.55;68.54;100936.09;10403477;28;20055;-68
2021/12/14 06:59:21;;;;;;;19.65;12.73;;;;;;;7.57;68.41;100926.50;10399696;28;20537;-68
2021/12/14 07:04:26;;;;;;;21.00;13.13;;;;;;;7.60;68.49;100938.56;10405335;28;20413;-69
2021/12/14 07:09:43;;;;;;;17.10;12.30;;;;;;;7.62;68.28;100932.41;10401927;28;20107;-68
2021/12/14 07:15:03;;;;;;;18.55;13.45;;;;;;;7.60;68.11;100928.16;10401797;28;20057;-68
2021/12/14 07:20:11;;;;;;;14.93;11.93;;;;;;;7.64;68.26;100941.03;10394490;28;20059;-68
2021/12/14 07:25:15;;;;;;;14.98;11.63;;;;;;;7.72;68.14;100936.44;10403721;28;20125;-68
2021/12/14 07:30:32;;;;;;;17.30;12.25;;;;;;;7.76;67.76;100930.22;10396441;28;20060;-69
2021/12/14 07:35:49;;;;;;;16.52;13.90;;;;;;;7.79;67.81;100939.69;10403890;28;20047;-68
2021/12/14 07:40:57;;;;;;;16.27;10.70;;;;;;;7.78;67.73;100933.63;10402312;28;20059;-69
2021/12/14 07:46:01;;;;;;;16.42;11.45;;;;;;;7.78;67.58;100932.75;10392229;28;20053;-68
2021/12/14 07:51:03;;;;;;;14.95;10.88;;;;;;;7.82;67.42;100943.03;10395244;28;20045;-69
2021/12/14 07:56:05;;;;;;;15.07;11.43;;;;;;;7.80;67.55;100947.44;10390226;28;20044;-68
2021/12/14 08:01:08;;;;;;;16.27;11.73;;;;;;;7.80;67.40;100954.41;10388843;28;20176;-68
2021/12/14 08:06:14;;;;;;;14.80;12.00;;;;;;;7.60;67.54;100952.44;10400964;28;20064;-69
2021/12/14 08:11:46;;;;;;;16.05;12.57;;;;;;;7.56;67.94;100958.66;10402402;28;20132;-68
2021/12/14 08:16:56;;;;;;;14.73;12.23;;;;;;;7.72;67.57;100964.22;10400832;28;20137;-74
2021/12/14 08:22:02;;;;;;;17.48;12.15;;;;;;;7.73;67.63;100984.16;10403749;28;20144;-73
2021/12/14 08:27:07;;;;;;;18.77;13.07;;;;;;;7.81;67.36;100993.41;10403694;28;20503;-73
2021/12/14 08:32:13;;;;;;;17.35;13.38;;;;;;;7.83;67.27;101002.03;10402972;28;20132;-73
2021/12/14 08:37:17;;;;;;;19.05;14.07;;;;;;;7.91;67.15;100991.38;10399190;28;20067;-73
2021/12/14 08:42:34;;;;;;;18.38;13.88;;;;;;;7.90;67.11;100989.66;10400198;28;20072;-73
2021/12/14 08:47:41;;;;;;;17.83;13.27;;;;;;;8.03;66.94;101002.25;10402966;28;20152;-72
2021/12/14 08:52:52;;;;;;;17.10;13.27;;;;;;;7.90;67.24;101010.50;10404183;28;20049;-72
2021/12/14 08:57:54;;;;;;;19.42;12.85;;;;;;;7.84;67.30;101015.91;10403274;28;20052;-73
2021/12/14 09:03:00;;;;;;;18.92;13.88;;;;;;;7.84;67.27;101026.31;10409613;28;20045;-72
2021/12/14 09:08:02;;;;;;;20.33;14.45;;;;;;;7.73;67.63;101023.22;10410256;28;20150;-73
2021/12/14 09:13:09;;;;;;;19.75;14.65;;;;;;;7.70;67.87;101029.34;10409787;28;20046;-72
2021/12/14 09:18:14;;;;;;;24.67;14.80;;;;;;;7.76;67.73;101030.91;10406971;28;20050;-73
2021/12/14 09:23:21;;;;;;;18.70;13.82;;;;;;;7.88;67.56;101035.75;10410133;28;20073;-72
2021/12/14 09:28:23;;;;;;;21.00;14.13;;;;;;;7.89;67.38;101027.03;10410310;28;20049;-72
2021/12/14 09:33:26;;;;;;;19.35;13.55;;;;;;;7.80;67.55;101033.38;10409973;28;20232;-72
2021/12/14 09:38:34;;;;;;;23.42;14.82;;;;;;;7.94;67.53;101045.97;10409524;28;20537;-72
2021/12/14 09:43:37;;;;;;;24.05;14.98;;;;;;;7.95;67.44;101048.53;10408353;28;20042;-73
2021/12/14 09:48:42;;;;;;;25.25;16.20;;;;;;;7.98;67.40;101047.56;10403934;28;20497;-73
2021/12/14 09:53:48;;;;;;;17.35;12.02;;;;;;;7.83;67.41;101043.69;10408132;28;20649;-74
2021/12/14 09:58:58;;;;;;;20.60;12.77;;;;;;;8.00;66.89;101033.59;10408731;28;20053;-73
2021/12/14 10:04:06;;;;;;;18.67;12.52;;;;;;;8.10;66.67;101034.19;10409152;28;20049;-72
2021/12/14 10:09:11;;;;;;;16.63;11.13;;;;;;;8.15;66.39;101042.72;10406849;28;20054;-73
2021/12/14 10:14:16;;;;;;;17.17;11.27;;;;;;;8.35;65.80;101042.06;10404170;28;20049;-72
2021/12/14 10:19:23;;;;;;;16.60;10.48;;;;;;;8.42;65.52;101039.22;10404366;28;20076;-74
2021/12/14 10:24:25;;;;;;;15.32;10.50;;;;;;;8.41;65.30;101034.03;10406805;28;20084;-73
2021/12/14 10:29:29;;;;;;;15.48;8.88;;;;;;;8.45;64.56;101038.25;10402944;28;20065;-73
2021/12/14 10:34:40;;;;;;;18.75;10.05;;;;;;;8.53;64.24;101034.50;10401768;28;20132;-73
2021/12/14 10:45:07;;;;;;;13.20;8.20;;;;;;;8.52;64.33;101039.75;10402901;28;20045;-72
2021/12/14 10:50:17;;;;;;;11.57;7.57;;;;;;;8.63;63.56;101029.81;10403325;28;20056;-73
2021/12/14 10:55:28;;;;;;;10.18;6.70;;;;;;;8.63;63.77;101045.44;10404752;28;20140;-72
2021/12/14 11:00:43;;;;;;;;;;;;;;;8.36;63.62;101047.25;10406299;28;20483;-73
2021/12/14 11:05:53;;;;;;;7.63;4.90;;;;;;;8.53;63.73;101036.22;10402887;28;19925;-74
2021/12/14 11:10:55;;;;;;;6.90;4.28;;;;;;;8.59;63.33;101036.03;10404109;28;20139;-73
2021/12/14 11:15:59;;;;;;;9.93;4.60;;;;;;;8.53;63.10;101025.81;10404273;28;20052;-72
2021/12/14 11:21:07;;;;;;;6.18;4.63;;;;;;;8.51;62.89;101027.63;10403590;28;20068;-72
2021/12/14 11:26:23;;;;;;;6.03;4.50;;;;;;;8.48;62.68;101035.56;10403544;28;20141;-73
2021/12/14 11:31:41;;;;;;;6.57;4.53;;;;;;;8.47;62.33;101041.66;10404823;28;20053;-73
2021/12/14 11:37:08;;;;;;;7.28;4.75;;;;;;;8.54;61.99;101030.13;10403417;28;20176;-72
2021/12/14 11:42:20;;;;;;;7.80;4.93;;;;;;;8.63;62.14;101022.84;10403341;28;20064;-74
2021/12/14 11:53:02;;;;;;;8.27;4.85;;;;;;;8.66;61.80;101008.84;10400419;28;20050;-73
2021/12/14 11:58:06;;;;;;;7.57;5.18;;;;;;;8.82;61.89;101012.63;10403680;28;20049;-73
2021/12/14 12:03:33;;;;;;;7.30;5.55;;;;;;;8.82;60.92;101010.88;10400076;28;20057;-73
2021/12/14 12:13:59;;;;;;;6.82;5.43;;;;;;;8.73;61.16;101010.31;10402225;28;20053;-73
2021/12/14 12:19:07;;;;;;;7.13;5.28;;;;;;;8.72;60.64;101003.41;10401632;28;20049;-74
2021/12/14 12:24:34;;;;;;;10.85;5.80;;;;;;;8.69;60.43;100998.28;10402204;28;20152;-73
2021/12/14 12:29:36;;;;;;;9.43;5.70;;;;;;;8.69;60.69;101004.38;10415315;28;20060;-73
2021/12/14 12:34:38;;;;;;;6.07;4.20;;;;;;;8.66;60.32;101003.63;10403949;28;20060;-73
2021/12/14 12:39:47;;;;;;;6.82;4.70;;;;;;;8.75;60.37;101000.72;10411170;28;20060;-74
2021/12/14 12:44:49;;;;;;;7.45;4.80;;;;;;;8.66;60.61;100990.59;10410734;28;20402;-73
2021/12/14 12:49:54;;;;;;;6.45;4.30;;;;;;;8.64;60.10;100998.47;10408229;28;20083;-74
2021/12/14 12:55:13;;;;;;;6.70;4.65;;;;;;;8.63;59.75;100995.91;10410006;28;20116;-72
2021/12/14 13:00:24;;;;;;;6.60;4.60;;;;;;;8.70;60.01;101000.00;10400897;28;20041;-73
2021/12/14 13:05:37;;;;;;;6.53;5.00;;;;;;;8.62;60.10;101004.66;10408804;28;20512;-74
2021/12/14 13:11:01;;;;;;;8.15;5.00;;;;;;;8.43;60.32;101011.38;10410162;28;20404;-73
2021/12/14 13:16:20;;;;;;;6.75;5.00;;;;;;;8.45;60.77;101012.19;10406902;28;20059;-73
2021/12/14 13:21:28;;;;;;;6.47;5.30;;;;;;;8.54;60.02;101010.13;10407844;28;20121;-73
2021/12/14 13:26:30;;;;;;;6.35;5.00;;;;;;;8.52;60.19;101011.09;10409983;28;20061;-73
2021/12/14 13:31:38;;;;;;;6.85;5.10;;;;;;;8.59;59.94;101009.94;10395562;28;20053;-74
2021/12/14 13:36:42;;;;;;;7.60;5.88;;;;;;;8.62;59.83;101005.50;10407818;28;20396;-74
2021/12/14 13:41:59;;;;;;;8.38;6.13;;;;;;;8.40;60.00;101016.72;10408593;28;20144;-74
2021/12/14 13:47:04;;;;;;;9.55;6.72;;;;;;;8.40;60.54;101032.34;10405659;28;20085;-73
2021/12/14 13:52:08;;;;;;;9.90;6.88;;;;;;;8.47;60.60;101026.88;10408994;28;20042;-73
2021/12/14 13:57:11;;;;;;;10.13;6.82;;;;;;;8.50;60.56;101023.31;10405626;28;20493;-73
2021/12/14 14:02:33;;;;;;;8.77;6.85;;;;;;;8.55;60.73;101040.50;10406938;28;20504;-73
2021/12/14 14:07:35;;;;;;;9.18;6.25;;;;;;;8.52;59.99;101052.78;10408179;28;20081;-73
2021/12/14 14:12:47;;;;;;;10.43;6.97;;;;;;;8.55;60.38;101060.50;10406484;28;20077;-74
2021/12/14 14:17:53;;;;;;;10.10;6.72;;;;;;;8.65;60.79;101056.69;10403893;28;20524;-73
2021/12/14 14:23:07;;;;;;;9.25;6.97;;;;;;;8.60;60.46;101061.22;10405883;28;20052;-74
2021/12/14 14:28:24;;;;;;;11.32;6.95;;;;;;;8.61;60.39;101066.38;10405473;28;20103;-73
2021/12/14 14:33:39;;;;;;;12.27;7.40;;;;;;;8.69;60.82;101066.97;10402887;28;20055;-74
2021/12/14 14:38:46;;;;;;;9.55;6.75;;;;;;;8.73;60.58;101068.56;10405073;28;20041;-75
2021/12/14 14:44:20;;;;;;;8.98;6.40;;;;;;;8.62;60.82;101075.06;10405094;28;20041;-74
2021/12/14 14:49:36;;;;;;;13.23;8.88;;;;;;;8.63;61.11;101079.34;10406254;28;20069;-73
2021/12/14 14:54:41;;;;;;;9.55;7.43;;;;;;;8.66;61.39;101084.47;10404718;28;20099;-72
2021/12/14 14:59:55;;;;;;;12.18;7.80;;;;;;;8.58;61.48;101069.09;10405162;28;20108;-73
2021/12/14 15:05:06;;;;;;;10.07;7.75;;;;;;;8.58;61.67;101073.44;10407135;28;20553;-73
2021/12/14 15:10:11;;;;;;;9.18;7.13;;;;;;;8.59;61.47;101078.59;10407012;28;20056;-73
2021/12/14 15:15:17;;;;;;;8.90;6.20;;;;;;;8.56;61.67;101076.13;10404562;28;20510;-72
2021/12/14 15:20:30;;;;;;;9.88;6.60;;;;;;;8.50;61.85;101075.47;10402474;28;20061;-76
2021/12/14 15:25:35;;;;;;;10.38;7.07;;;;;;;8.53;61.69;101090.97;10402376;28;20053;-75
2021/12/14 15:30:39;;;;;;;9.65;6.90;;;;;;;8.54;62.00;101096.19;10419256;28;20059;-75
2021/12/14 15:36:03;;;;;;;10.55;7.75;;;;;;;8.49;61.64;101087.63;10400265;28;20056;-76
2021/12/14 15:41:21;;;;;;;9.70;7.63;;;;;;;8.46;62.19;101098.19;10392246;28;20049;-75
2021/12/14 15:46:26;;;;;;;9.32;6.65;;;;;;;8.45;61.87;101100.81;10403173;28;20600;-74
2021/12/14 15:51:58;;;;;;;11.68;7.50;;;;;;;8.35;61.54;101117.66;10390899;28;20053;-75
2021/12/14 15:57:21;;;;;;;10.27;7.27;;;;;;;8.29;61.69;101118.72;10376703;28;20132;-76
2021/12/14 16:02:29;;;;;;;9.70;6.45;;;;;;;8.22;61.68;101124.16;10403250;28;20132;-74
2021/12/14 16:07:36;;;;;;;11.52;7.65;;;;;;;8.15;62.41;101122.63;10401907;28;20425;-76
2021/12/14 16:17:54;;;;;;;8.50;6.68;;;;;;;8.22;62.09;101122.41;10401083;28;20061;-75
2021/12/14 16:22:58;;;;;;;8.98;6.38;;;;;;;8.25;62.29;101132.75;10402689;28;20076;-74
2021/12/14 16:28:22;;;;;;;9.40;6.70;;;;;;;8.25;62.38;101130.13;10402465;28;20515;-75
2021/12/14 16:33:28;;;;;;;11.45;6.90;;;;;;;8.21;62.51;101138.94;10402366;28;20041;-75
2021/12/14 16:38:34;;;;;;;11.57;7.20;;;;;;;8.19;62.45;101134.69;10403321;28;20053;-75
2021/12/14 16:43:45;;;;;;;10.35;7.55;;;;;;;8.22;62.78;101135.41;10402352;28;20077;-75
2021/12/14 16:48:48;;;;;;;13.27;8.60;;;;;;;8.18;62.79;101140.81;10402459;28;20124;-75
2021/12/14 16:53:55;;;;;;;11.63;8.50;;;;;;;8.26;63.00;101144.03;10386965;28;20136;-75
2021/12/14 16:59:03;;;;;;;11.32;7.53;;;;;;;8.25;62.91;101156.19;10396906;28;20049;-73
2021/12/14 17:04:05;;;;;;;12.55;8.50;;;;;;;8.17;62.89;101159.94;10403089;28;20052;-76
2021/12/14 17:09:12;;;;;;;14.18;10.07;;;;;;;8.11;63.35;101171.41;10401675;28;20051;-76
2021/12/14 17:14:23;;;;;;;12.10;8.68;;;;;;;8.15;62.99;101172.16;10399164;28;20048;-75
2021/12/14 17:19:26;;;;;;;12.02;9.05;;;;;;;8.14;63.06;101175.66;10385798;28;20053;-76
2021/12/14 17:24:38;;;;;;;12.98;9.35;;;;;;;8.10;63.30;101166.22;10382940;28;20042;-74
2021/12/14 17:29:43;;;;;;;12.50;8.95;;;;;;;8.17;63.06;101165.13;10383911;28;20396;-76
2021/12/14 17:34:48;;;;;;;13.32;8.50;;;;;;;8.21;63.03;101166.75;10398272;28;20076;-75
2021/12/14 17:39:54;;;;;;;10.27;7.60;;;;;;;8.23;62.88;101175.38;10403142;28;20052;-76
2021/12/14 17:45:00;;;;;;;11.48;7.93;;;;;;;8.23;63.03;101181.44;10400657;28;20416;-75
2021/12/14 17:50:09;;;;;;;12.23;8.20;;;;;;;8.20;63.28;101183.31;10381754;28;20498;-74
2021/12/14 17:55:35;;;;;;;10.13;7.40;;;;;;;8.06;63.13;101177.63;10381652;28;20049;-75
2021/12/14 18:00:50;;;;;;;11.13;7.65;;;;;;;8.10;63.31;101174.03;10394279;28;20096;-75
2021/12/14 18:05:56;;;;;;;11.90;7.63;;;;;;;8.04;63.28;101178.50;10402424;28;20136;-75
2021/12/14 18:11:15;;;;;;;11.57;7.70;;;;;;;7.71;64.18;101181.25;10407118;28;20510;-75
2021/12/14 18:16:21;;;;;;;9.50;7.63;;;;;;;7.69;64.12;101185.63;10392557;28;20416;-75
2021/12/14 18:21:24;;;;;;;12.18;8.52;;;;;;;7.79;64.02;101187.09;10403853;28;20136;-75
2021/12/14 18:26:31;;;;;;;12.13;9.32;;;;;;;7.89;63.75;101189.38;10404517;28;20049;-75
2021/12/14 18:31:34;;;;;;;14.13;9.80;;;;;;;7.88;63.83;101194.63;10403732;28;20053;-76
2021/12/14 18:36:48;;;;;;;13.25;9.75;;;;;;;7.94;63.64;101207.47;10396731;28;20057;-75
2021/12/14 18:42:03;;;;;;;11.93;8.45;;;;;;;7.96;63.67;101201.31;10404440;28;20056;-74
2021/12/14 18:52:30;;;;;;;11.75;8.35;;;;;;;8.02;63.70;101214.16;10394452;28;21502;-75
2021/12/14 18:57:32;;;;;;;10.30;8.10;;;;;;;8.01;63.73;101201.19;10403522;28;20476;-75
2021/12/14 19:02:36;;;;;;;18.20;8.63;;;;;;;8.00;63.70;101208.16;10403516;28;20049;-74
2021/12/14 19:07:42;;;;;;;12.95;8.35;;;;;;;8.01;63.86;101204.66;10392977;28;20052;-75
2021/12/14 19:12:51;;;;;;;14.75;8.32;;;;;;;8.03;63.96;101205.47;10401401;28;20051;-75
2021/12/14 19:17:56;;;;;;;25.15;16.35;;;;;;;7.97;64.07;101205.66;10398346;28;20085;-75
2021/12/14 19:22:57;;;;;;;58.08;27.60;;;;;;;7.91;64.17;101200.63;10403961;28;20564;-75
2021/12/14 19:28:12;;;;;;;24.02;12.57;;;;;;;7.86;64.32;101197.28;10403656;28;20051;-74
2021/12/14 19:33:14;;;;;;;15.10;9.50;;;;;;;7.77;64.18;101194.09;10402088;28;20511;-74
2021/12/14 19:38:20;;;;;;;15.07;11.40;;;;;;;7.73;64.46;101201.09;10402505;28;20140;-75
2021/12/14 19:43:32;;;;;;;15.00;9.80;;;;;;;7.71;64.64;101199.47;10400171;28;20562;-75
2021/12/14 19:48:40;;;;;;;11.25;8.73;;;;;;;7.66;64.60;101204.78;10400061;28;20049;-73
2021/12/14 19:54:13;;;;;;;13.60;9.35;;;;;;;7.70;64.27;101206.41;10401181;28;20494;-73
2021/12/14 19:59:28;;;;;;;15.45;9.27;;;;;;;7.70;64.27;101209.03;10399574;28;20091;-74
2021/12/14 20:04:33;;;;;;;14.15;9.63;;;;;;;7.75;64.09;101211.50;10392826;28;20398;-74
2021/12/14 20:09:41;;;;;;;13.48;9.50;;;;;;;7.74;64.28;101212.38;10396306;28;20104;-73
2021/12/14 20:14:51;;;;;;;13.13;9.43;;;;;;;7.66;64.04;101219.56;10397209;28;20045;-74
2021/12/14 20:19:54;;;;;;;13.15;9.60;;;;;;;7.61;64.27;101216.25;10395600;28;20124;-73
2021/12/14 20:24:57;;;;;;;14.27;9.95;;;;;;;7.56;64.28;101220.69;10402405;28;20143;-73
2021/12/14 20:30:02;;;;;;;15.63;9.68;;;;;;;7.48;64.27;101228.72;10400247;28;20071;-73
2021/12/14 20:35:28;;;;;;;13.02;10.13;;;;;;;7.45;64.59;101220.97;10401500;28;20081;-73
2021/12/14 20:40:34;;;;;;;13.75;9.77;;;;;;;7.43;64.64;101225.38;10400865;28;20446;-72
2021/12/14 20:50:55;;;;;;;12.88;9.35;;;;;;;7.31;64.77;101217.03;10400229;28;20411;-72
2021/12/14 20:56:06;;;;;;;14.05;10.00;;;;;;;7.34;64.68;101228.25;10404539;28;20132;-73
2021/12/14 21:01:09;;;;;;;14.23;9.90;;;;;;;7.34;64.91;101236.03;10410375;28;20408;-73
2021/12/14 21:06:17;;;;;;;14.23;9.85;;;;;;;7.32;65.11;101230.03;10388294;28;20067;-73
2021/12/14 21:11:25;;;;;;;14.00;9.60;;;;;;;7.34;65.15;101236.03;10406987;28;20124;-73
2021/12/14 21:16:33;;;;;;;12.60;9.20;;;;;;;7.41;65.00;101232.38;10408039;28;20064;-73
2021/12/14 21:21:34;;;;;;;12.85;9.15;;;;;;;7.50;64.88;101233.88;10408285;28;20056;-73
2021/12/14 21:26:36;;;;;;;13.07;9.65;;;;;;;7.55;64.73;101239.84;10408556;28;20487;-73
2021/12/14 21:31:40;;;;;;;13.82;10.27;;;;;;;7.56;64.67;101242.41;10409011;28;20052;-73
2021/12/14 21:36:45;;;;;;;14.85;10.82;;;;;;;7.63;64.67;101243.91;10395951;28;20498;-74
2021/12/14 21:41:53;;;;;;;13.40;10.48;;;;;;;7.65;64.70;101243.91;10408256;28;20136;-74
2021/12/14 21:47:09;;;;;;;14.60;9.88;;;;;;;7.61;64.61;101258.72;10406714;28;20049;-73
2021/12/14 21:52:23;;;;;;;13.48;9.63;;;;;;;7.62;64.75;101257.84;10406356;28;20480;-75
2021/12/14 21:57:35;;;;;;;13.90;10.02;;;;;;;7.47;64.48;101263.44;10394072;28;20503;-74
2021/12/14 22:02:37;;;;;;;14.13;10.40;;;;;;;7.36;65.30;101260.28;10404188;28;20563;-73
2021/12/14 22:07:39;;;;;;;15.43;9.75;;;;;;;7.39;65.08;101254.97;10403854;28;20382;-75
2021/12/14 22:12:44;;;;;;;17.88;10.68;;;;;;;7.44;65.10;101255.72;10403761;28;20080;-75
2021/12/14 22:17:45;;;;;;;14.07;9.90;;;;;;;7.47;65.13;101262.63;10395302;28;20135;-67
2021/12/14 22:22:47;;;;;;;17.92;12.07;;;;;;;7.49;65.17;101261.66;10405426;28;20151;-67
2021/12/14 22:27:51;;;;;;;19.20;11.70;;;;;;;7.40;65.12;101259.31;10383199;28;20487;-67
2021/12/14 22:32:54;;;;;;;15.05;10.23;;;;;;;7.33;65.42;101265.53;10402646;28;20041;-67
2021/12/14 22:37:56;;;;;;;15.60;11.35;;;;;;;7.30;65.40;101273.44;10397223;28;20048;-67
2021/12/14 22:48:20;;;;;;;16.10;12.20;;;;;;;7.10;65.88;101271.31;10388625;28;20413;-67
2021/12/14 22:53:22;;;;;;;17.00;12.93;;;;;;;7.18;65.88;101277.19;10406306;28;20045;-67
2021/12/14 22:58:28;;;;;;;15.00;11.13;;;;;;;7.10;65.74;101275.69;10382887;28;20052;-67
2021/12/14 23:03:30;;;;;;;18.20;12.40;;;;;;;6.97;66.17;101282.94;10403531;28;20052;-67
2021/12/14 23:08:32;;;;;;;21.30;15.50;;;;;;;6.99;66.49;101273.34;10403412;28;20053;-67
2021/12/14 23:13:43;;;;;;;20.45;14.27;;;;;;;7.15;66.53;101273.81;10405020;28;20516;-67
2021/12/14 23:18:53;;;;;;;17.40;12.43;;;;;;;7.24;66.17;101273.59;10374638;28;20457;-67
2021/12/14 23:23:56;;;;;;;19.20;12.05;;;;;;;7.30;65.80;101283.84;10405386;28;20054;-67
2021/12/14 23:28:58;;;;;;;17.58;12.00;;;;;;;7.19;65.90;101281.50;10404930;28;20045;-67
2021/12/14 23:34:00;;;;;;;16.13;11.68;;;;;;;7.31;65.94;101280.34;10404872;28;20459;-67
2021/12/14 23:39:03;;;;;;;19.25;13.27;;;;;;;7.33;65.60;101288.97;10404289;28;20140;-67
2021/12/14 23:44:20;;;;;;;17.20;12.73;;;;;;;7.38;65.74;101287.13;10405091;28;20136;-67
2021/12/14 23:49:23;;;;;;;22.00;15.48;;;;;;;7.44;65.60;101280.91;10404028;28;20140;-67
2021/12/14 23:54:26;;;;;;;19.70;15.25;;;;;;;7.53;65.54;101280.69;10403616;28;20037;-67
2021/12/14 23:59:28;;;;;;;19.58;13.55;;;;;;;7.63;65.42;101285.56;10404327;28;20124;-67
